Schneifelwetter: Wetterstation Hallschlag, 537 m . NN
Wetterdaten: Montag, 20.12.2010
Datum Zeit Temp. A. Feuchte A. Luftdruck Regen Wind Richtung Richtung Sonnenschein Helligkeit T Regen Taupunkt Windchill
20.12.2010 00:08 -1,0 C 98 % 988 hPa 0,0 l/m 16,1 km/h (3 Bft) W22.5 265 0 min 0 lux 0,00 min -1,3 C -8,9 C
20.12.2010 00:23 -1,4 C 97 % 990 hPa 0,0 l/m 0,0 km/h (0 Bft) W22.5 265 0 min 0 lux 0,00 min -1,8 C -1,4 C
20.12.2010 00:38 -2,2 C 95 % 991 hPa 0,0 l/m 0,0 km/h (0 Bft) W45 260 0 min 0 lux 0,00 min -2,9 C -2,2 C
20.12.2010 00:53 -2,8 C 95 % 992 hPa 0,0 l/m 0,0 km/h (0 Bft) W-SW45 255 0 min 0 lux 0,00 min -3,5 C -2,8 C
20.12.2010 01:08 -3,2 C 94 % 992 hPa 0,0 l/m 0,0 km/h (0 Bft) W67.5 270 0 min 0 lux 0,00 min -4,0 C -3,2 C
20.12.2010 01:23 -3,4 C 94 % 993 hPa 0,0 l/m 0,0 km/h (0 Bft) W67.5 270 0 min 0 lux 0,00 min -4,2 C -3,4 C
20.12.2010 01:38 -3,7 C 95 % 993 hPa 0,0 l/m 0,0 km/h (0 Bft) W45 265 0 min 0 lux 0,00 min -4,4 C -3,7 C
20.12.2010 01:53 -3,9 C 96 % 994 hPa 0,0 l/m 0,0 km/h (0 Bft) W67.5 270 0 min 0 lux 0,00 min -4,4 C -3,9 C
20.12.2010 02:08 -4,0 C 96 % 995 hPa 0,6 l/m 0,0 km/h (0 Bft) W22.5 270 0 min 0 lux 15,00 min -4,5 C -4,0 C
20.12.2010 02:23 -4,2 C 96 % 995 hPa 0,0 l/m 0,0 km/h (0 Bft) W67.5 270 0 min 0 lux 0,00 min -4,7 C -4,2 C
20.12.2010 02:39 -4,4 C 96 % 996 hPa 0,0 l/m 0,0 km/h (0 Bft) W45 265 0 min 0 lux 0,00 min -4,9 C -4,4 C
20.12.2010 02:54 -4,3 C 96 % 996 hPa 0,0 l/m 0,0 km/h (0 Bft) W45 265 0 min 0 lux 0,00 min -4,8 C -4,3 C
20.12.2010 03:09 -4,4 C 97 % 997 hPa 0,0 l/m 0,0 km/h (0 Bft) W-SW 245 0 min 0 lux 0,00 min -4,8 C -4,4 C
20.12.2010 03:24 -4,4 C 97 % 997 hPa 0,0 l/m 0,0 km/h (0 Bft) W67.5 270 0 min 0 lux 0,00 min -4,8 C -4,4 C
20.12.2010 03:39 -4,6 C 96 % 997 hPa 0,0 l/m 0,0 km/h (0 Bft) W22.5 270 0 min 0 lux 0,00 min -5,1 C -4,6 C
20.12.2010 03:54 -4,8 C 96 % 998 hPa 0,0 l/m 0,0 km/h (0 Bft) W45 275 0 min 0 lux 0,00 min -5,3 C -4,8 C
20.12.2010 04:09 -4,8 C 97 % 997 hPa 0,0 l/m 0,0 km/h (0 Bft) W22.5 270 0 min 0 lux 0,00 min -5,2 C -4,8 C
20.12.2010 04:24 -4,9 C 96 % 998 hPa 0,0 l/m 0,0 km/h (0 Bft) W22.5 265 0 min 0 lux 0,00 min -5,4 C -4,9 C
20.12.2010 04:39 -5,0 C 96 % 998 hPa 0,0 l/m 0,0 km/h (0 Bft) W22.5 270 0 min 0 lux 0,00 min -5,5 C -5,0 C
20.12.2010 04:54 -5,0 C 96 % 998 hPa 0,0 l/m 0,0 km/h (0 Bft) W22.5 270 0 min 0 lux 0,00 min -5,5 C -5,0 C
20.12.2010 05:09 -5,0 C 96 % 998 hPa 0,0 l/m 0,0 km/h (0 Bft) W22.5 270 0 min 0 lux 0,00 min -5,5 C -5,0 C
20.12.2010 05:24 -5,1 C 96 % 998 hPa 0,0 l/m 0,0 km/h (0 Bft) W22.5 270 0 min 0 lux 0,00 min -5,6 C -5,1 C
20.12.2010 05:39 -5,1 C 96 % 998 hPa 0,0 l/m 0,0 km/h (0 Bft) W22.5 260 0 min 0 lux 0,00 min -5,6 C -5,1 C
20.12.2010 05:54 -5,1 C 96 % 998 hPa 0,0 l/m 0,0 km/h (0 Bft) W-SW22.5 255 0 min 0 lux 0,00 min -5,6 C -5,1 C
20.12.2010 06:09 -5,1 C 96 % 999 hPa 0,0 l/m 0,0 km/h (0 Bft) W22.5 260 0 min 0 lux 0,00 min -5,6 C -5,1 C
20.12.2010 06:24 -5,1 C 96 % 999 hPa 0,0 l/m 0,0 km/h (0 Bft) W22.5 270 0 min 0 lux 0,00 min -5,6 C -5,1 C
20.12.2010 06:39 -5,1 C 96 % 999 hPa 0,0 l/m 0,0 km/h (0 Bft) W 260 0 min 0 lux 0,00 min -5,6 C -5,1 C
20.12.2010 06:54 -5,1 C 96 % 999 hPa 0,0 l/m 0,0 km/h (0 Bft) W 260 0 min 0 lux 0,00 min -5,6 C -5,1 C
20.12.2010 07:09 -5,1 C 97 % 999 hPa 0,0 l/m 0,0 km/h (0 Bft) W-SW 255 0 min 0 lux 0,00 min -5,5 C -5,1 C
20.12.2010 07:24 -5,1 C 97 % 999 hPa 0,0 l/m 0,0 km/h (0 Bft) W-SW 245 0 min 0 lux 0,00 min -5,5 C -5,1 C
20.12.2010 07:45 -5,1 C 97 % 999 hPa 0,0 l/m 0,0 km/h (0 Bft) W-SW22.5 245 0 min 0 lux 0,00 min -5,5 C -5,1 C
20.12.2010 07:59 -5,1 C 97 % 999 hPa 0,0 l/m 0,0 km/h (0 Bft) W-SW 240 0 min 0 lux 0,00 min -5,5 C -5,1 C
20.12.2010 08:14 -5,1 C 97 % 999 hPa 0,0 l/m 0,0 km/h (0 Bft) W-SW22.5 245 0 min 52 lux 0,00 min -5,5 C -5,1 C
20.12.2010 08:30 -5,3 C 97 % 999 hPa 0,0 l/m 0,0 km/h (0 Bft) W-SW 245 0 min 192 lux 0,00 min -5,7 C -5,3 C
20.12.2010 08:45 -5,3 C 97 % 999 hPa 0,0 l/m 0,0 km/h (0 Bft) W-SW 255 0 min 376 lux 0,00 min -5,7 C -5,3 C
20.12.2010 09:00 -5,1 C 97 % 999 hPa 0,0 l/m 0,0 km/h (0 Bft) SW 215 0 min 882 lux 0,00 min -5,5 C -5,1 C
20.12.2010 09:15 -5,1 C 97 % 999 hPa 0,0 l/m 0,0 km/h (0 Bft) W-SW 250 0 min 1,43 klux 0,00 min -5,5 C -5,1 C
20.12.2010 09:30 -5,0 C 96 % 999 hPa 0,0 l/m 0,0 km/h (0 Bft) W-SW 250 0 min 2,02 klux 0,00 min -5,5 C -5,0 C
20.12.2010 09:44 -5,0 C 96 % 999 hPa 0,0 l/m 0,0 km/h (0 Bft) W-SW 250 0 min 3,51 klux 0,00 min -5,5 C -5,0 C
20.12.2010 10:00 -4,9 C 96 % 999 hPa 0,0 l/m 0,0 km/h (0 Bft) W-SW 250 0 min 4,31 klux 0,00 min -5,4 C -4,9 C
20.12.2010 10:15 -4,7 C 96 % 999 hPa 0,0 l/m 0,0 km/h (0 Bft) W-SW 250 0 min 5,35 klux 0,00 min -5,2 C -4,7 C
20.12.2010 10:30 -4,6 C 96 % 999 hPa 0,0 l/m 0,0 km/h (0 Bft) W-SW 250 0 min 5,83 klux 0,00 min -5,1 C -4,6 C
20.12.2010 10:45 -4,4 C 96 % 999 hPa 0,0 l/m 0,0 km/h (0 Bft) W-SW 250 0 min 7,01 klux 0,00 min -4,9 C -4,4 C
20.12.2010 11:00 -4,2 C 96 % 999 hPa 0,0 l/m 0,0 km/h (0 Bft) W-SW 250 0 min 9,8 klux 0,00 min -4,7 C -4,2 C
20.12.2010 11:15 -4,0 C 96 % 999 hPa 0,0 l/m 0,0 km/h (0 Bft) W-SW 250 0 min 9,4 klux 0,00 min -4,5 C -4,0 C
20.12.2010 11:29 -4,0 C 95 % 999 hPa 0,0 l/m 0,0 km/h (0 Bft) W-SW 250 0 min 10,5 klux 0,00 min -4,7 C -4,0 C
20.12.2010 11:45 -3,9 C 95 % 999 hPa 0,0 l/m 0,0 km/h (0 Bft) W-SW 250 0 min 10,0 klux 0,00 min -4,6 C -3,9 C
20.12.2010 12:00 -4,0 C 95 % 1000 hPa 0,0 l/m 0,0 km/h (0 Bft) W-SW 250 0 min 9,6 klux 0,00 min -4,7 C -4,0 C
20.12.2010 12:15 -3,8 C 95 % 1000 hPa 0,0 l/m 0,0 km/h (0 Bft) W-SW 250 0 min 12,9 klux 0,00 min -4,5 C -3,8 C
20.12.2010 12:30 -3,5 C 94 % 1000 hPa 0,0 l/m 0,0 km/h (0 Bft) W-SW 245 0 min 13,6 klux 0,00 min -4,3 C -3,5 C
20.12.2010 12:29 -3,5 C 94 % 1000 hPa 0,0 l/m 0,0 km/h (0 Bft) W-SW 245 0 min 13,6 klux 0,00 min -4,3 C -3,5 C
20.12.2010 12:44 -3,7 C 94 % 1000 hPa 0,0 l/m 0,0 km/h (0 Bft) W-SW 245 0 min 12,8 klux 0,00 min -4,5 C -3,7 C
20.12.2010 13:00 -3,7 C 94 % 1000 hPa 0,0 l/m 0,0 km/h (0 Bft) W-SW 245 0 min 11,4 klux 0,00 min -4,5 C -3,7 C
20.12.2010 13:15 -3,6 C 94 % 1000 hPa 0,0 l/m 0,0 km/h (0 Bft) W-SW 245 0 min 10,4 klux 0,00 min -4,4 C -3,6 C
20.12.2010 13:30 -3,4 C 94 % 1000 hPa 0,0 l/m 0,0 km/h (0 Bft) W-SW 245 0 min 10,6 klux 0,00 min -4,2 C -3,4 C
20.12.2010 13:45 -3,0 C 94 % 1000 hPa 0,0 l/m 0,0 km/h (0 Bft) W-SW 250 0 min 11,6 klux 0,00 min -3,8 C -3,0 C
20.12.2010 14:00 -2,9 C 94 % 1000 hPa 0,0 l/m 0,0 km/h (0 Bft) W-SW 250 0 min 11,6 klux 0,00 min -3,7 C -2,9 C
20.12.2010 14:14 -2,9 C 94 % 1000 hPa 0,0 l/m 0,0 km/h (0 Bft) W-SW 250 0 min 12,3 klux 0,00 min -3,7 C -2,9 C
20.12.2010 14:30 -3,0 C 94 % 1000 hPa 0,0 l/m 0,0 km/h (0 Bft) W-SW 245 0 min 9,7 klux 0,00 min -3,8 C -3,0 C
20.12.2010 14:45 -3,0 C 94 % 1001 hPa 0,0 l/m 0,0 km/h (0 Bft) W-SW 250 0 min 8,06 klux 0,00 min -3,8 C -3,0 C
20.12.2010 15:00 -3,1 C 94 % 1001 hPa 0,0 l/m 0,0 km/h (0 Bft) W-SW 245 0 min 7,64 klux 0,00 min -3,9 C -3,1 C
20.12.2010 15:15 -3,2 C 94 % 1001 hPa 0,0 l/m 0,0 km/h (0 Bft) W-SW 245 0 min 7,21 klux 0,00 min -4,0 C -3,2 C
20.12.2010 15:30 -3,4 C 94 % 1001 hPa 0,0 l/m 0,0 km/h (0 Bft) W-SW 245 0 min 6,17 klux 0,00 min -4,2 C -3,4 C
20.12.2010 15:45 -3,4 C 94 % 1002 hPa 0,0 l/m 0,0 km/h (0 Bft) W-SW 245 0 min 5,15 klux 0,00 min -4,2 C -3,4 C
20.12.2010 15:59 -3,5 C 94 % 1002 hPa 0,0 l/m 0,0 km/h (0 Bft) W-SW 245 0 min 3,14 klux 0,00 min -4,3 C -3,5 C
20.12.2010 16:15 -3,7 C 94 % 1002 hPa 0,0 l/m 0,0 km/h (0 Bft) W-SW 250 0 min 2,06 klux 0,00 min -4,5 C -3,7 C
20.12.2010 16:30 -4,3 C 93 % 1002 hPa 0,0 l/m 0,0 km/h (0 Bft) W-SW 250 0 min 1,26 klux 0,00 min -5,3 C -4,3 C
20.12.2010 16:45 -5,1 C 93 % 1002 hPa 0,0 l/m 0,0 km/h (0 Bft) W-SW 250 0 min 689 lux 0,00 min -6,1 C -5,1 C
20.12.2010 17:00 -6,0 C 93 % 1002 hPa 0,0 l/m 0,0 km/h (0 Bft) W-SW 245 0 min 177 lux 0,00 min -6,9 C -6,0 C
20.12.2010 17:15 -6,6 C 93 % 1002 hPa 0,0 l/m 0,0 km/h (0 Bft) W-SW 250 0 min 24 lux 0,00 min -7,5 C -6,6 C
20.12.2010 17:29 -7,2 C 93 % 1003 hPa 0,0 l/m 0,0 km/h (0 Bft) W-SW 250 0 min 1 lux 0,00 min -8,1 C -7,2 C
20.12.2010 17:44 -7,4 C 94 % 1003 hPa 0,0 l/m 0,0 km/h (0 Bft) W-SW 250 0 min 0 lux 0,00 min -8,2 C -7,4 C
20.12.2010 18:00 -7,3 C 94 % 1003 hPa 0,0 l/m 0,0 km/h (0 Bft) W-SW 250 0 min 0 lux 0,00 min -8,1 C -7,3 C
20.12.2010 18:15 -7,0 C 95 % 1003 hPa 0,0 l/m 0,0 km/h (0 Bft) W-SW 250 0 min 0 lux 0,00 min -7,7 C -7,0 C
20.12.2010 18:30 -6,9 C 95 % 1003 hPa 0,0 l/m 0,0 km/h (0 Bft) W-SW 250 0 min 0 lux 0,00 min -7,6 C -6,9 C
20.12.2010 18:45 -7,1 C 95 % 1003 hPa 0,0 l/m 0,0 km/h (0 Bft) W-SW 250 0 min 0 lux 0,00 min -7,8 C -7,1 C
20.12.2010 19:00 -7,1 C 95 % 1003 hPa 0,0 l/m 0,0 km/h (0 Bft) W-SW 250 0 min 0 lux 0,00 min -7,8 C -7,1 C
20.12.2010 19:14 -6,9 C 96 % 1003 hPa 0,0 l/m 0,0 km/h (0 Bft) W-SW 250 0 min 0 lux 0,00 min -7,4 C -6,9 C
20.12.2010 19:30 -6,8 C 96 % 1003 hPa 0,0 l/m 0,0 km/h (0 Bft) W-SW 250 0 min 0 lux 0,00 min -7,3 C -6,8 C
20.12.2010 19:45 -6,5 C 96 % 1003 hPa 0,0 l/m 0,0 km/h (0 Bft) W-SW 250 0 min 0 lux 0,00 min -7,0 C -6,5 C
20.12.2010 20:00 -6,4 C 96 % 1003 hPa 0,0 l/m 0,0 km/h (0 Bft) W-SW 250 0 min 0 lux 0,00 min -6,9 C -6,4 C
20.12.2010 20:15 -6,6 C 96 % 1003 hPa 0,0 l/m 0,0 km/h (0 Bft) W-SW 250 0 min 0 lux 0,00 min -7,1 C -6,6 C
20.12.2010 20:30 -6,8 C 96 % 1003 hPa 0,0 l/m 0,0 km/h (0 Bft) W-SW 250 0 min 0 lux 0,00 min -7,3 C -6,8 C
20.12.2010 20:45 -7,3 C 95 % 1003 hPa 0,0 l/m 0,0 km/h (0 Bft) W-SW 250 0 min 0 lux 0,00 min -8,0 C -7,3 C
20.12.2010 20:59 -7,3 C 96 % 1003 hPa 0,0 l/m 0,0 km/h (0 Bft) W-SW 245 0 min 0 lux 0,00 min -7,8 C -7,3 C
20.12.2010 21:15 -7,4 C 96 % 1003 hPa 0,0 l/m 0,0 km/h (0 Bft) W-SW 245 0 min 0 lux 0,00 min -7,9 C -7,4 C
20.12.2010 21:30 -7,2 C 96 % 1003 hPa 0,0 l/m 0,0 km/h (0 Bft) W-SW 250 0 min 0 lux 0,00 min -7,7 C -7,2 C
20.12.2010 21:45 -7,3 C 96 % 1003 hPa 0,0 l/m 0,0 km/h (0 Bft) W-SW 245 0 min 0 lux 0,00 min -7,8 C -7,3 C
20.12.2010 22:00 -7,6 C 96 % 1003 hPa 0,0 l/m 0,0 km/h (0 Bft) W-SW 245 0 min 0 lux 0,00 min -8,1 C -7,6 C
20.12.2010 22:15 -7,6 C 96 % 1003 hPa 0,0 l/m 0,0 km/h (0 Bft) W-SW 245 0 min 0 lux 0,00 min -8,1 C -7,6 C
20.12.2010 22:29 -6,7 C 97 % 1003 hPa 0,0 l/m 0,0 km/h (0 Bft) W-SW 250 0 min 0 lux 0,00 min -7,1 C -6,7 C
20.12.2010 22:44 -6,0 C 98 % 1002 hPa 0,0 l/m 0,0 km/h (0 Bft) W-SW 250 0 min 0 lux 0,00 min -6,3 C -6,0 C
20.12.2010 23:00 -5,5 C 98 % 1002 hPa 0,0 l/m 0,0 km/h (0 Bft) W-SW 250 0 min 0 lux 0,00 min -5,8 C -5,5 C
20.12.2010 23:15 -5,3 C 98 % 1003 hPa 0,0 l/m 0,0 km/h (0 Bft) W-SW 250 0 min 0 lux 0,00 min -5,6 C -5,3 C
20.12.2010 23:30 -4,8 C 98 % 1002 hPa 0,0 l/m 0,0 km/h (0 Bft) W-SW 250 0 min 0 lux 0,00 min -5,1 C -4,8 C
20.12.2010 23:45 -4,7 C 98 % 1002 hPa 0,0 l/m 0,0 km/h (0 Bft) W-SW 250 0 min 0 lux 0,00 min -5,0 C -4,7 C
20.12.2010 23:54 -4,6 C 98 % 1002 hPa 0,0 l/m 0,0 km/h (0 Bft) W-SW 250 0 min 0 lux 0,00 min -4,9 C -4,6 C
_ Min-Zeit 22:00 16:30 00:08 - 00:23 - - - - - 17:44 00:08
Minimum _ -7,6 C 93 % 988 hPa - 0,0 km/h (0 Bft) - - - - - -8,2 C -8,9 C
_ Max-Zeit 00:08 00:08 17:29 02:08 00:08 - - 00:08 12:30 02:08 00:08 00:23
Maximum _ -1,0 C 98 % 1003 hPa 0,6 l/m 16,1 km/h
W (3 Bft)
- - 0 min 13,6 klux 15,00 min -1,3 C -1,4 C
Durchschnitt _ -4,9 C 96 % 1000 hPa #0,6 l/m 0,2 km/h (0 Bft) W - #0 min. 2,60 klux #15 min. -5,5 C -5,0 C